sensor_id;sensor_type;location;lat;lon;timestamp;temperature;humidity
19943;DHT22;10133;50.956;17.276;2023-02-11T00:01:10;1.00;99.90
19943;DHT22;10133;50.956;17.276;2023-02-11T00:03:37;1.10;99.90
19943;DHT22;10133;50.956;17.276;2023-02-11T00:06:06;1.20;99.90
19943;DHT22;10133;50.956;17.276;2023-02-11T00:08:36;1.20;99.90
19943;DHT22;10133;50.956;17.276;2023-02-11T00:11:03;1.20;99.90
19943;DHT22;10133;50.956;17.276;2023-02-11T00:13:31;1.20;99.90
19943;DHT22;10133;50.956;17.276;2023-02-11T00:15:57;1.30;99.90
19943;DHT22;10133;50.956;17.276;2023-02-11T00:18:24;1.30;99.90
19943;DHT22;10133;50.956;17.276;2023-02-11T00:20:51;1.30;99.90
19943;DHT22;10133;50.956;17.276;2023-02-11T00:23:18;1.40;99.90
19943;DHT22;10133;50.956;17.276;2023-02-11T00:25:45;1.40;99.90
19943;DHT22;10133;50.956;17.276;2023-02-11T00:28:12;1.40;99.90
19943;DHT22;10133;50.956;17.276;2023-02-11T00:30:39;1.40;99.90
19943;DHT22;10133;50.956;17.276;2023-02-11T00:33:06;1.40;99.90
19943;DHT22;10133;50.956;17.276;2023-02-11T00:35:36;1.40;99.90
19943;DHT22;10133;50.956;17.276;2023-02-11T00:38:03;1.40;99.90
19943;DHT22;10133;50.956;17.276;2023-02-11T00:40:30;1.50;99.90
19943;DHT22;10133;50.956;17.276;2023-02-11T00:42:57;1.50;99.90
19943;DHT22;10133;50.956;17.276;2023-02-11T00:45:24;1.50;99.90
19943;DHT22;10133;50.956;17.276;2023-02-11T00:47:51;1.50;99.90
19943;DHT22;10133;50.956;17.276;2023-02-11T00:50:17;1.50;99.90
19943;DHT22;10133;50.956;17.276;2023-02-11T00:52:44;1.50;99.90
19943;DHT22;10133;50.956;17.276;2023-02-11T00:55:11;1.50;99.90
19943;DHT22;10133;50.956;17.276;2023-02-11T00:57:38;1.50;99.90
19943;DHT22;10133;50.956;17.276;2023-02-11T01:00:06;1.50;99.90
19943;DHT22;10133;50.956;17.276;2023-02-11T01:02:33;1.50;99.90
19943;DHT22;10133;50.956;17.276;2023-02-11T01:05:00;1.50;99.90
19943;DHT22;10133;50.956;17.276;2023-02-11T01:07:28;1.50;99.90
19943;DHT22;10133;50.956;17.276;2023-02-11T01:09:54;1.50;99.90
19943;DHT22;10133;50.956;17.276;2023-02-11T01:12:22;1.50;99.90
19943;DHT22;10133;50.956;17.276;2023-02-11T01:14:49;1.50;99.90
19943;DHT22;10133;50.956;17.276;2023-02-11T01:17:16;1.50;99.90
19943;DHT22;10133;50.956;17.276;2023-02-11T01:19:43;1.50;99.90
19943;DHT22;10133;50.956;17.276;2023-02-11T01:22:09;1.50;99.90
19943;DHT22;10133;50.956;17.276;2023-02-11T01:24:36;1.40;99.90
19943;DHT22;10133;50.956;17.276;2023-02-11T01:27:03;1.40;99.90
19943;DHT22;10133;50.956;17.276;2023-02-11T01:29:30;1.40;99.90
19943;DHT22;10133;50.956;17.276;2023-02-11T01:31:57;1.40;99.90
19943;DHT22;10133;50.956;17.276;2023-02-11T01:34:25;1.40;99.90
19943;DHT22;10133;50.956;17.276;2023-02-11T01:36:57;1.40;99.90
19943;DHT22;10133;50.956;17.276;2023-02-11T01:39:25;1.40;99.90
19943;DHT22;10133;50.956;17.276;2023-02-11T01:41:52;1.40;99.90
19943;DHT22;10133;50.956;17.276;2023-02-11T01:46:54;1.50;99.90
19943;DHT22;10133;50.956;17.276;2023-02-11T01:49:27;1.50;99.90
19943;DHT22;10133;50.956;17.276;2023-02-11T01:52:35;1.50;99.90
19943;DHT22;10133;50.956;17.276;2023-02-11T01:55:05;1.50;99.90
19943;DHT22;10133;50.956;17.276;2023-02-11T01:57:55;1.40;99.90
19943;DHT22;10133;50.956;17.276;2023-02-11T02:00:34;1.40;99.90
19943;DHT22;10133;50.956;17.276;2023-02-11T02:03:09;1.40;99.90
19943;DHT22;10133;50.956;17.276;2023-02-11T02:05:58;1.40;99.90
19943;DHT22;10133;50.956;17.276;2023-02-11T02:08:32;1.40;99.90
19943;DHT22;10133;50.956;17.276;2023-02-11T02:11:00;1.40;99.90
19943;DHT22;10133;50.956;17.276;2023-02-11T02:13:30;1.40;99.90
19943;DHT22;10133;50.956;17.276;2023-02-11T02:16:12;1.40;99.90
19943;DHT22;10133;50.956;17.276;2023-02-11T02:35:43;1.40;99.90
19943;DHT22;10133;50.956;17.276;2023-02-11T02:38:26;1.40;99.90
19943;DHT22;10133;50.956;17.276;2023-02-11T02:41:07;1.40;99.90
19943;DHT22;10133;50.956;17.276;2023-02-11T02:43:39;1.30;99.90
19943;DHT22;10133;50.956;17.276;2023-02-11T02:46:19;1.30;99.90
19943;DHT22;10133;50.956;17.276;2023-02-11T02:48:47;1.30;99.90
19943;DHT22;10133;50.956;17.276;2023-02-11T03:04:55;1.30;99.90
19943;DHT22;10133;50.956;17.276;2023-02-11T03:07:27;1.20;99.90
19943;DHT22;10133;50.956;17.276;2023-02-11T03:10:10;1.20;99.90
19943;DHT22;10133;50.956;17.276;2023-02-11T03:12:41;1.20;99.90
19943;DHT22;10133;50.956;17.276;2023-02-11T03:15:11;1.20;99.90
19943;DHT22;10133;50.956;17.276;2023-02-11T03:17:41;1.20;99.90
19943;DHT22;10133;50.956;17.276;2023-02-11T03:20:12;1.20;99.90
19943;DHT22;10133;50.956;17.276;2023-02-11T03:22:45;1.20;99.90
19943;DHT22;10133;50.956;17.276;2023-02-11T03:25:13;1.20;99.90
19943;DHT22;10133;50.956;17.276;2023-02-11T03:27:46;1.20;99.90
19943;DHT22;10133;50.956;17.276;2023-02-11T03:30:24;1.20;99.90
19943;DHT22;10133;50.956;17.276;2023-02-11T03:35:38;1.30;99.90
19943;DHT22;10133;50.956;17.276;2023-02-11T03:38:17;1.20;99.90
19943;DHT22;10133;50.956;17.276;2023-02-11T03:40:46;1.20;99.90
19943;DHT22;10133;50.956;17.276;2023-02-11T03:43:44;1.20;99.90
19943;DHT22;10133;50.956;17.276;2023-02-11T03:46:13;1.20;99.90
19943;DHT22;10133;50.956;17.276;2023-02-11T03:48:45;1.20;99.90
19943;DHT22;10133;50.956;17.276;2023-02-11T03:51:15;1.20;99.90
19943;DHT22;10133;50.956;17.276;2023-02-11T03:53:43;1.20;99.90
19943;DHT22;10133;50.956;17.276;2023-02-11T03:56:16;1.20;99.90
19943;DHT22;10133;50.956;17.276;2023-02-11T03:58:44;1.20;99.90
19943;DHT22;10133;50.956;17.276;2023-02-11T04:01:11;1.20;99.90
19943;DHT22;10133;50.956;17.276;2023-02-11T04:03:38;1.30;99.90
19943;DHT22;10133;50.956;17.276;2023-02-11T04:06:05;1.30;99.90
19943;DHT22;10133;50.956;17.276;2023-02-11T04:08:32;1.30;99.90
19943;DHT22;10133;50.956;17.276;2023-02-11T04:10:59;1.30;99.90
19943;DHT22;10133;50.956;17.276;2023-02-11T04:13:26;1.30;99.90
19943;DHT22;10133;50.956;17.276;2023-02-11T04:15:53;1.30;99.90
19943;DHT22;10133;50.956;17.276;2023-02-11T04:18:20;1.40;99.90
19943;DHT22;10133;50.956;17.276;2023-02-11T04:20:48;1.40;99.90
19943;DHT22;10133;50.956;17.276;2023-02-11T04:23:15;1.40;99.90
19943;DHT22;10133;50.956;17.276;2023-02-11T04:25:42;1.40;99.90
19943;DHT22;10133;50.956;17.276;2023-02-11T04:28:09;1.50;99.90
19943;DHT22;10133;50.956;17.276;2023-02-11T04:30:36;1.50;99.90
19943;DHT22;10133;50.956;17.276;2023-02-11T04:33:03;1.50;99.90
19943;DHT22;10133;50.956;17.276;2023-02-11T04:35:30;1.50;99.90
19943;DHT22;10133;50.956;17.276;2023-02-11T04:37:57;1.50;99.90
19943;DHT22;10133;50.956;17.276;2023-02-11T04:40:23;1.60;99.90
19943;DHT22;10133;50.956;17.276;2023-02-11T04:42:51;1.60;99.90
19943;DHT22;10133;50.956;17.276;2023-02-11T04:45:18;1.60;99.90
19943;DHT22;10133;50.956;17.276;2023-02-11T04:47:45;1.60;99.90
19943;DHT22;10133;50.956;17.276;2023-02-11T04:50:11;1.60;99.90
19943;DHT22;10133;50.956;17.276;2023-02-11T04:52:38;1.60;99.90
19943;DHT22;10133;50.956;17.276;2023-02-11T04:55:05;1.60;99.90
19943;DHT22;10133;50.956;17.276;2023-02-11T04:57:32;1.70;99.90
19943;DHT22;10133;50.956;17.276;2023-02-11T04:59:59;1.70;99.90
19943;DHT22;10133;50.956;17.276;2023-02-11T05:02:26;1.70;99.90
19943;DHT22;10133;50.956;17.276;2023-02-11T05:04:53;1.70;99.90
19943;DHT22;10133;50.956;17.276;2023-02-11T05:07:20;1.70;99.90
19943;DHT22;10133;50.956;17.276;2023-02-11T05:09:46;1.70;99.90
19943;DHT22;10133;50.956;17.276;2023-02-11T05:12:14;1.70;99.90
19943;DHT22;10133;50.956;17.276;2023-02-11T05:14:41;1.80;99.90
19943;DHT22;10133;50.956;17.276;2023-02-11T05:17:07;1.70;99.90
19943;DHT22;10133;50.956;17.276;2023-02-11T05:19:34;1.70;99.90
19943;DHT22;10133;50.956;17.276;2023-02-11T05:22:01;1.70;99.90
19943;DHT22;10133;50.956;17.276;2023-02-11T05:24:31;1.60;99.90
19943;DHT22;10133;50.956;17.276;2023-02-11T05:26:58;1.60;99.90
19943;DHT22;10133;50.956;17.276;2023-02-11T05:29:25;1.60;99.90
19943;DHT22;10133;50.956;17.276;2023-02-11T05:31:52;1.60;99.90
19943;DHT22;10133;50.956;17.276;2023-02-11T05:34:18;1.60;99.90
19943;DHT22;10133;50.956;17.276;2023-02-11T05:36:45;1.60;99.90
19943;DHT22;10133;50.956;17.276;2023-02-11T05:39:12;1.70;99.90
19943;DHT22;10133;50.956;17.276;2023-02-11T05:41:39;1.70;99.90
19943;DHT22;10133;50.956;17.276;2023-02-11T05:44:06;1.70;99.90
19943;DHT22;10133;50.956;17.276;2023-02-11T05:46:33;1.70;99.90
19943;DHT22;10133;50.956;17.276;2023-02-11T05:49:00;1.70;99.90
19943;DHT22;10133;50.956;17.276;2023-02-11T05:51:26;1.70;99.90
19943;DHT22;10133;50.956;17.276;2023-02-11T05:53:53;1.80;99.90
19943;DHT22;10133;50.956;17.276;2023-02-11T05:56:20;1.80;99.90
19943;DHT22;10133;50.956;17.276;2023-02-11T05:58:47;1.80;99.90
19943;DHT22;10133;50.956;17.276;2023-02-11T06:01:14;1.80;99.90
19943;DHT22;10133;50.956;17.276;2023-02-11T06:03:41;1.80;99.90
19943;DHT22;10133;50.956;17.276;2023-02-11T06:06:11;1.90;99.90
19943;DHT22;10133;50.956;17.276;2023-02-11T06:08:38;1.90;99.90
19943;DHT22;10133;50.956;17.276;2023-02-11T06:11:05;1.90;99.90
19943;DHT22;10133;50.956;17.276;2023-02-11T06:13:33;1.90;99.90
19943;DHT22;10133;50.956;17.276;2023-02-11T06:16:01;1.90;99.90
19943;DHT22;10133;50.956;17.276;2023-02-11T06:18:28;1.90;99.90
19943;DHT22;10133;50.956;17.276;2023-02-11T06:20:55;1.90;99.90
19943;DHT22;10133;50.956;17.276;2023-02-11T06:23:22;1.90;99.90
19943;DHT22;10133;50.956;17.276;2023-02-11T06:25:49;2.00;99.90
19943;DHT22;10133;50.956;17.276;2023-02-11T06:28:17;2.00;99.90
19943;DHT22;10133;50.956;17.276;2023-02-11T06:30:44;2.00;99.90
19943;DHT22;10133;50.956;17.276;2023-02-11T06:33:11;2.00;99.90
19943;DHT22;10133;50.956;17.276;2023-02-11T06:35:38;2.00;99.90
19943;DHT22;10133;50.956;17.276;2023-02-11T06:38:05;2.00;99.90
19943;DHT22;10133;50.956;17.276;2023-02-11T06:40:32;2.10;99.90
19943;DHT22;10133;50.956;17.276;2023-02-11T06:42:59;2.10;99.90
19943;DHT22;10133;50.956;17.276;2023-02-11T06:45:26;2.10;99.90
19943;DHT22;10133;50.956;17.276;2023-02-11T06:47:53;2.10;99.90
19943;DHT22;10133;50.956;17.276;2023-02-11T06:50:20;2.20;99.90
19943;DHT22;10133;50.956;17.276;2023-02-11T06:52:47;2.20;99.90
19943;DHT22;10133;50.956;17.276;2023-02-11T06:55:14;2.20;99.90
19943;DHT22;10133;50.956;17.276;2023-02-11T06:57:41;2.20;99.90
19943;DHT22;10133;50.956;17.276;2023-02-11T07:00:08;2.30;99.90
19943;DHT22;10133;50.956;17.276;2023-02-11T07:02:35;2.30;99.90
19943;DHT22;10133;50.956;17.276;2023-02-11T07:05:05;2.40;99.90
19943;DHT22;10133;50.956;17.276;2023-02-11T07:07:32;2.40;99.90
19943;DHT22;10133;50.956;17.276;2023-02-11T07:10:00;2.40;99.90
19943;DHT22;10133;50.956;17.276;2023-02-11T07:12:29;2.50;99.90
19943;DHT22;10133;50.956;17.276;2023-02-11T07:14:57;2.50;99.90
19943;DHT22;10133;50.956;17.276;2023-02-11T07:17:24;2.60;99.90
19943;DHT22;10133;50.956;17.276;2023-02-11T07:19:51;2.70;99.90
19943;DHT22;10133;50.956;17.276;2023-02-11T07:22:18;2.80;99.90
19943;DHT22;10133;50.956;17.276;2023-02-11T07:24:45;2.90;99.90
19943;DHT22;10133;50.956;17.276;2023-02-11T07:27:12;2.90;99.90
19943;DHT22;10133;50.956;17.276;2023-02-11T07:29:40;3.00;99.90
19943;DHT22;10133;50.956;17.276;2023-02-11T07:32:07;3.10;99.90
19943;DHT22;10133;50.956;17.276;2023-02-11T07:34:34;3.20;99.90
19943;DHT22;10133;50.956;17.276;2023-02-11T07:37:01;3.20;99.90
19943;DHT22;10133;50.956;17.276;2023-02-11T07:39:28;3.30;99.90
19943;DHT22;10133;50.956;17.276;2023-02-11T07:41:55;3.30;99.90
19943;DHT22;10133;50.956;17.276;2023-02-11T07:44:22;3.40;99.90
19943;DHT22;10133;50.956;17.276;2023-02-11T07:46:49;3.40;99.90
19943;DHT22;10133;50.956;17.276;2023-02-11T07:49:17;3.40;99.90
19943;DHT22;10133;50.956;17.276;2023-02-11T07:51:43;3.40;99.90
19943;DHT22;10133;50.956;17.276;2023-02-11T07:54:11;3.50;99.90
19943;DHT22;10133;50.956;17.276;2023-02-11T07:56:38;3.50;99.90
19943;DHT22;10133;50.956;17.276;2023-02-11T07:59:05;3.50;99.90
19943;DHT22;10133;50.956;17.276;2023-02-11T08:01:32;3.50;99.90
19943;DHT22;10133;50.956;17.276;2023-02-11T08:04:00;3.50;99.90
19943;DHT22;10133;50.956;17.276;2023-02-11T08:06:31;3.50;99.90
19943;DHT22;10133;50.956;17.276;2023-02-11T08:09:04;3.50;99.90
19943;DHT22;10133;50.956;17.276;2023-02-11T08:11:31;3.40;99.90
19943;DHT22;10133;50.956;17.276;2023-02-11T08:13:59;3.50;99.90
19943;DHT22;10133;50.956;17.276;2023-02-11T08:16:31;3.50;99.90
19943;DHT22;10133;50.956;17.276;2023-02-11T08:19:01;3.50;99.90
19943;DHT22;10133;50.956;17.276;2023-02-11T08:21:29;3.50;99.90
19943;DHT22;10133;50.956;17.276;2023-02-11T08:23:56;3.50;99.90
19943;DHT22;10133;50.956;17.276;2023-02-11T08:26:28;3.50;99.90
19943;DHT22;10133;50.956;17.276;2023-02-11T08:28:58;3.50;99.90
19943;DHT22;10133;50.956;17.276;2023-02-11T08:31:28;3.50;99.90
19943;DHT22;10133;50.956;17.276;2023-02-11T08:33:55;3.50;99.90
19943;DHT22;10133;50.956;17.276;2023-02-11T08:36:28;3.50;99.90
19943;DHT22;10133;50.956;17.276;2023-02-11T08:38:57;3.60;99.90
19943;DHT22;10133;50.956;17.276;2023-02-11T08:41:45;3.60;99.90
19943;DHT22;10133;50.956;17.276;2023-02-11T08:44:12;3.70;99.90
19943;DHT22;10133;50.956;17.276;2023-02-11T08:46:39;3.70;99.90
19943;DHT22;10133;50.956;17.276;2023-02-11T08:49:06;3.70;99.90
19943;DHT22;10133;50.956;17.276;2023-02-11T08:51:33;3.80;99.90
19943;DHT22;10133;50.956;17.276;2023-02-11T08:54:00;3.70;99.90
19943;DHT22;10133;50.956;17.276;2023-02-11T08:56:28;3.80;99.90
19943;DHT22;10133;50.956;17.276;2023-02-11T08:58:57;3.80;99.90
19943;DHT22;10133;50.956;17.276;2023-02-11T09:01:27;3.80;99.90
19943;DHT22;10133;50.956;17.276;2023-02-11T09:03:55;3.90;99.90
19943;DHT22;10133;50.956;17.276;2023-02-11T09:06:24;3.90;99.90
19943;DHT22;10133;50.956;17.276;2023-02-11T09:08:53;3.90;99.90
19943;DHT22;10133;50.956;17.276;2023-02-11T09:11:25;4.00;99.90
19943;DHT22;10133;50.956;17.276;2023-02-11T09:13:52;3.90;99.90
19943;DHT22;10133;50.956;17.276;2023-02-11T09:16:22;3.90;99.90
19943;DHT22;10133;50.956;17.276;2023-02-11T09:18:50;4.00;99.90
19943;DHT22;10133;50.956;17.276;2023-02-11T09:21:18;4.00;99.90
19943;DHT22;10133;50.956;17.276;2023-02-11T09:23:45;4.00;99.90
19943;DHT22;10133;50.956;17.276;2023-02-11T09:26:19;4.00;99.90
19943;DHT22;10133;50.956;17.276;2023-02-11T09:28:47;4.10;99.90
19943;DHT22;10133;50.956;17.276;2023-02-11T09:31:17;4.10;99.90
19943;DHT22;10133;50.956;17.276;2023-02-11T09:33:46;4.20;99.90
19943;DHT22;10133;50.956;17.276;2023-02-11T09:36:22;4.20;99.90
19943;DHT22;10133;50.956;17.276;2023-02-11T09:38:51;4.30;99.90
19943;DHT22;10133;50.956;17.276;2023-02-11T09:41:45;4.40;99.90
19943;DHT22;10133;50.956;17.276;2023-02-11T09:44:24;4.40;99.90
19943;DHT22;10133;50.956;17.276;2023-02-11T09:47:19;4.60;99.90
19943;DHT22;10133;50.956;17.276;2023-02-11T09:49:50;4.70;99.90
19943;DHT22;10133;50.956;17.276;2023-02-11T09:52:39;4.70;99.90
19943;DHT22;10133;50.956;17.276;2023-02-11T09:57:54;4.80;99.90
19943;DHT22;10133;50.956;17.276;2023-02-11T10:00:30;4.80;99.90
19943;DHT22;10133;50.956;17.276;2023-02-11T10:03:12;4.90;99.90
19943;DHT22;10133;50.956;17.276;2023-02-11T10:11:25;5.00;99.90
19943;DHT22;10133;50.956;17.276;2023-02-11T10:14:11;5.00;99.90
19943;DHT22;10133;50.956;17.276;2023-02-11T10:16:50;5.00;99.90
19943;DHT22;10133;50.956;17.276;2023-02-11T10:22:22;5.00;99.90
19943;DHT22;10133;50.956;17.276;2023-02-11T10:24:55;5.00;99.90
19943;DHT22;10133;50.956;17.276;2023-02-11T10:27:30;5.00;99.90
19943;DHT22;10133;50.956;17.276;2023-02-11T10:30:20;5.00;99.90
19943;DHT22;10133;50.956;17.276;2023-02-11T10:32:55;5.10;99.90
19943;DHT22;10133;50.956;17.276;2023-02-11T10:35:23;5.10;99.90
19943;DHT22;10133;50.956;17.276;2023-02-11T10:37:52;5.10;99.90
19943;DHT22;10133;50.956;17.276;2023-02-11T10:40:26;5.10;99.90
19943;DHT22;10133;50.956;17.276;2023-02-11T10:42:56;5.10;99.90
19943;DHT22;10133;50.956;17.276;2023-02-11T10:45:37;5.10;99.90
19943;DHT22;10133;50.956;17.276;2023-02-11T10:48:06;5.10;99.90
19943;DHT22;10133;50.956;17.276;2023-02-11T10:53:40;5.20;99.90
19943;DHT22;10133;50.956;17.276;2023-02-11T10:56:18;5.20;99.90
19943;DHT22;10133;50.956;17.276;2023-02-11T11:02:01;5.20;99.90
19943;DHT22;10133;50.956;17.276;2023-02-11T11:09:52;5.30;99.90
19943;DHT22;10133;50.956;17.276;2023-02-11T11:12:27;5.30;99.90
19943;DHT22;10133;50.956;17.276;2023-02-11T11:14:57;5.30;99.90
19943;DHT22;10133;50.956;17.276;2023-02-11T11:17:24;5.30;99.90
19943;DHT22;10133;50.956;17.276;2023-02-11T11:22:48;5.40;99.90
19943;DHT22;10133;50.956;17.276;2023-02-11T11:25:35;5.30;99.90
19943;DHT22;10133;50.956;17.276;2023-02-11T11:28:03;5.30;99.90
19943;DHT22;10133;50.956;17.276;2023-02-11T11:30:39;5.30;99.90
19943;DHT22;10133;50.956;17.276;2023-02-11T11:33:19;5.30;99.90
19943;DHT22;10133;50.956;17.276;2023-02-11T11:36:04;5.30;99.90
19943;DHT22;10133;50.956;17.276;2023-02-11T11:38:34;5.30;99.90
19943;DHT22;10133;50.956;17.276;2023-02-11T11:46:40;5.30;99.90
19943;DHT22;10133;50.956;17.276;2023-02-11T11:49:27;5.30;99.90
19943;DHT22;10133;50.956;17.276;2023-02-11T11:55:32;5.40;99.90
19943;DHT22;10133;50.956;17.276;2023-02-11T11:58:00;5.50;99.90
19943;DHT22;10133;50.956;17.276;2023-02-11T12:00:35;5.60;99.90
19943;DHT22;10133;50.956;17.276;2023-02-11T12:06:14;5.80;99.90
19943;DHT22;10133;50.956;17.276;2023-02-11T12:17:33;5.90;99.90
19943;DHT22;10133;50.956;17.276;2023-02-11T12:23:40;6.10;99.90
19943;DHT22;10133;50.956;17.276;2023-02-11T12:26:18;6.20;99.90
19943;DHT22;10133;50.956;17.276;2023-02-11T12:31:41;6.20;99.90
19943;DHT22;10133;50.956;17.276;2023-02-11T12:40:34;6.20;99.90
19943;DHT22;10133;50.956;17.276;2023-02-11T12:43:23;6.10;99.90
19943;DHT22;10133;50.956;17.276;2023-02-11T12:51:38;6.00;99.90
19943;DHT22;10133;50.956;17.276;2023-02-11T12:54:18;6.00;99.90
19943;DHT22;10133;50.956;17.276;2023-02-11T12:57:06;6.00;99.90
19943;DHT22;10133;50.956;17.276;2023-02-11T12:59:51;5.90;99.90
19943;DHT22;10133;50.956;17.276;2023-02-11T13:05:01;5.90;99.90
19943;DHT22;10133;50.956;17.276;2023-02-11T13:07:38;5.90;99.90
19943;DHT22;10133;50.956;17.276;2023-02-11T13:12:43;5.90;99.90
19943;DHT22;10133;50.956;17.276;2023-02-11T13:15:30;5.90;99.90
19943;DHT22;10133;50.956;17.276;2023-02-11T13:18:09;6.00;99.90
19943;DHT22;10133;50.956;17.276;2023-02-11T13:20:47;6.00;99.90
19943;DHT22;10133;50.956;17.276;2023-02-11T13:31:41;6.00;99.90
19943;DHT22;10133;50.956;17.276;2023-02-11T13:34:26;6.00;99.90
19943;DHT22;10133;50.956;17.276;2023-02-11T13:37:23;6.00;99.90
19943;DHT22;10133;50.956;17.276;2023-02-11T13:40:21;6.00;99.90
19943;DHT22;10133;50.956;17.276;2023-02-11T13:42:59;6.00;99.90
19943;DHT22;10133;50.956;17.276;2023-02-11T13:45:44;6.00;99.90
19943;DHT22;10133;50.956;17.276;2023-02-11T13:48:32;6.00;99.90
19943;DHT22;10133;50.956;17.276;2023-02-11T13:51:04;6.00;99.90
19943;DHT22;10133;50.956;17.276;2023-02-11T13:53:48;6.10;99.90
19943;DHT22;10133;50.956;17.276;2023-02-11T13:56:34;6.10;99.90
19943;DHT22;10133;50.956;17.276;2023-02-11T13:59:43;6.20;99.90
19943;DHT22;10133;50.956;17.276;2023-02-11T14:13:31;6.50;99.90
19943;DHT22;10133;50.956;17.276;2023-02-11T14:16:16;6.50;99.90
19943;DHT22;10133;50.956;17.276;2023-02-11T14:19:01;6.50;99.90
19943;DHT22;10133;50.956;17.276;2023-02-11T14:26:34;6.50;99.90
19943;DHT22;10133;50.956;17.276;2023-02-11T14:29:27;6.50;99.90
19943;DHT22;10133;50.956;17.276;2023-02-11T14:42:50;6.40;99.90
19943;DHT22;10133;50.956;17.276;2023-02-11T14:45:23;6.40;99.90
19943;DHT22;10133;50.956;17.276;2023-02-11T14:48:05;6.40;99.90
19943;DHT22;10133;50.956;17.276;2023-02-11T14:50:45;6.40;99.90
19943;DHT22;10133;50.956;17.276;2023-02-11T14:53:16;6.40;99.90
19943;DHT22;10133;50.956;17.276;2023-02-11T14:55:46;6.40;99.90
19943;DHT22;10133;50.956;17.276;2023-02-11T14:58:17;6.40;99.90
19943;DHT22;10133;50.956;17.276;2023-02-11T15:06:16;6.30;99.90
19943;DHT22;10133;50.956;17.276;2023-02-11T15:11:21;6.30;99.90
19943;DHT22;10133;50.956;17.276;2023-02-11T15:13:49;6.30;99.90
19943;DHT22;10133;50.956;17.276;2023-02-11T15:16:22;6.30;99.90
19943;DHT22;10133;50.956;17.276;2023-02-11T15:18:52;6.30;99.90
19943;DHT22;10133;50.956;17.276;2023-02-11T15:21:27;6.20;99.90
19943;DHT22;10133;50.956;17.276;2023-02-11T15:24:04;6.20;99.90
19943;DHT22;10133;50.956;17.276;2023-02-11T15:26:34;6.20;99.90
19943;DHT22;10133;50.956;17.276;2023-02-11T15:29:00;6.20;99.90
19943;DHT22;10133;50.956;17.276;2023-02-11T15:31:27;6.20;99.90
19943;DHT22;10133;50.956;17.276;2023-02-11T15:34:06;6.10;99.90
19943;DHT22;10133;50.956;17.276;2023-02-11T15:36:34;6.10;99.90
19943;DHT22;10133;50.956;17.276;2023-02-11T15:39:28;6.10;99.90
19943;DHT22;10133;50.956;17.276;2023-02-11T15:42:24;6.00;99.90
19943;DHT22;10133;50.956;17.276;2023-02-11T15:48:55;6.00;99.90
19943;DHT22;10133;50.956;17.276;2023-02-11T15:51:26;5.90;99.90
19943;DHT22;10133;50.956;17.276;2023-02-11T15:54:06;5.90;99.90
19943;DHT22;10133;50.956;17.276;2023-02-11T15:56:40;5.90;99.90
19943;DHT22;10133;50.956;17.276;2023-02-11T15:59:20;5.80;99.90
19943;DHT22;10133;50.956;17.276;2023-02-11T16:01:49;5.80;99.90
19943;DHT22;10133;50.956;17.276;2023-02-11T16:04:18;5.80;99.90
19943;DHT22;10133;50.956;17.276;2023-02-11T16:06:47;5.80;99.90
19943;DHT22;10133;50.956;17.276;2023-02-11T16:16:50;5.70;99.90
19943;DHT22;10133;50.956;17.276;2023-02-11T16:19:19;5.70;99.90
19943;DHT22;10133;50.956;17.276;2023-02-11T16:21:51;5.60;99.90
19943;DHT22;10133;50.956;17.276;2023-02-11T16:24:26;5.60;99.90
19943;DHT22;10133;50.956;17.276;2023-02-11T16:27:40;5.60;99.90
19943;DHT22;10133;50.956;17.276;2023-02-11T16:29:49;5.60;99.90
19943;DHT22;10133;50.956;17.276;2023-02-11T16:32:17;5.60;99.90
19943;DHT22;10133;50.956;17.276;2023-02-11T16:34:45;5.60;99.90
19943;DHT22;10133;50.956;17.276;2023-02-11T16:37:12;5.60;99.90
19943;DHT22;10133;50.956;17.276;2023-02-11T16:39:38;5.60;99.90
19943;DHT22;10133;50.956;17.276;2023-02-11T16:42:05;5.60;99.90
19943;DHT22;10133;50.956;17.276;2023-02-11T16:44:33;5.60;99.90
19943;DHT22;10133;50.956;17.276;2023-02-11T16:47:01;5.60;99.90
19943;DHT22;10133;50.956;17.276;2023-02-11T16:49:33;5.60;99.90
19943;DHT22;10133;50.956;17.276;2023-02-11T16:52:05;5.50;99.90
19943;DHT22;10133;50.956;17.276;2023-02-11T16:54:33;5.60;99.90
19943;DHT22;10133;50.956;17.276;2023-02-11T16:57:00;5.60;99.90
19943;DHT22;10133;50.956;17.276;2023-02-11T16:59:28;5.60;99.90
19943;DHT22;10133;50.956;17.276;2023-02-11T17:01:56;5.60;99.90
19943;DHT22;10133;50.956;17.276;2023-02-11T17:04:28;5.60;99.90
19943;DHT22;10133;50.956;17.276;2023-02-11T17:06:56;5.60;99.90
19943;DHT22;10133;50.956;17.276;2023-02-11T17:09:26;5.60;99.90
19943;DHT22;10133;50.956;17.276;2023-02-11T17:11:56;5.60;99.90
19943;DHT22;10133;50.956;17.276;2023-02-11T17:14:23;5.60;99.90
19943;DHT22;10133;50.956;17.276;2023-02-11T17:16:50;5.60;99.90
19943;DHT22;10133;50.956;17.276;2023-02-11T17:19:18;5.50;99.90
19943;DHT22;10133;50.956;17.276;2023-02-11T17:21:49;5.50;99.90
19943;DHT22;10133;50.956;17.276;2023-02-11T17:24:17;5.50;99.90
19943;DHT22;10133;50.956;17.276;2023-02-11T17:26:44;5.50;99.90
19943;DHT22;10133;50.956;17.276;2023-02-11T17:29:14;5.50;99.90
19943;DHT22;10133;50.956;17.276;2023-02-11T17:31:41;5.50;99.90
19943;DHT22;10133;50.956;17.276;2023-02-11T17:34:09;5.50;99.90
19943;DHT22;10133;50.956;17.276;2023-02-11T17:36:36;5.50;99.90
19943;DHT22;10133;50.956;17.276;2023-02-11T17:39:04;5.50;99.90
19943;DHT22;10133;50.956;17.276;2023-02-11T17:41:35;5.50;99.90
19943;DHT22;10133;50.956;17.276;2023-02-11T17:44:03;5.50;99.90
19943;DHT22;10133;50.956;17.276;2023-02-11T17:46:30;5.50;99.90
19943;DHT22;10133;50.956;17.276;2023-02-11T17:48:58;5.50;99.90
19943;DHT22;10133;50.956;17.276;2023-02-11T17:51:33;5.50;99.90
19943;DHT22;10133;50.956;17.276;2023-02-11T17:54:06;5.50;99.90
19943;DHT22;10133;50.956;17.276;2023-02-11T17:56:34;5.50;99.90
19943;DHT22;10133;50.956;17.276;2023-02-11T17:59:02;5.50;99.90
19943;DHT22;10133;50.956;17.276;2023-02-11T18:01:31;5.50;99.90
19943;DHT22;10133;50.956;17.276;2023-02-11T18:03:58;5.50;99.90
19943;DHT22;10133;50.956;17.276;2023-02-11T18:06:26;5.50;99.90
19943;DHT22;10133;50.956;17.276;2023-02-11T18:08:56;5.50;99.90
19943;DHT22;10133;50.956;17.276;2023-02-11T18:11:25;5.50;99.90
19943;DHT22;10133;50.956;17.276;2023-02-11T18:13:53;5.50;99.90
19943;DHT22;10133;50.956;17.276;2023-02-11T18:16:21;5.50;99.90
19943;DHT22;10133;50.956;17.276;2023-02-11T18:18:49;5.50;99.90
19943;DHT22;10133;50.956;17.276;2023-02-11T18:21:18;5.50;99.90
19943;DHT22;10133;50.956;17.276;2023-02-11T18:23:46;5.50;99.90
19943;DHT22;10133;50.956;17.276;2023-02-11T18:26:14;5.50;99.90
19943;DHT22;10133;50.956;17.276;2023-02-11T18:28:41;5.50;99.90
19943;DHT22;10133;50.956;17.276;2023-02-11T18:31:12;5.50;99.90
19943;DHT22;10133;50.956;17.276;2023-02-11T18:33:40;5.50;99.90
19943;DHT22;10133;50.956;17.276;2023-02-11T18:36:12;5.50;99.90